sensor_id;sensor_type;location;lat;lon;timestamp;P1;durP1;ratioP1;P2;durP2;ratioP2
17169;SDS011;8700;48.222;16.342;2022-12-07T00:05:20;16.90;;;15.20;;
17169;SDS011;8700;48.222;16.342;2022-12-07T00:08:43;16.37;;;14.77;;
17169;SDS011;8700;48.222;16.342;2022-12-07T00:12:08;15.10;;;13.50;;
17169;SDS011;8700;48.222;16.342;2022-12-07T00:15:32;14.97;;;13.47;;
17169;SDS011;8700;48.222;16.342;2022-12-07T00:18:56;15.27;;;12.93;;
17169;SDS011;8700;48.222;16.342;2022-12-07T00:22:20;16.33;;;14.63;;
17169;SDS011;8700;48.222;16.342;2022-12-07T00:25:43;17.53;;;15.63;;
17169;SDS011;8700;48.222;16.342;2022-12-07T00:29:06;16.63;;;15.03;;
17169;SDS011;8700;48.222;16.342;2022-12-07T00:37:02;19.93;;;17.17;;
17169;SDS011;8700;48.222;16.342;2022-12-07T00:40:26;19.17;;;16.13;;
17169;SDS011;8700;48.222;16.342;2022-12-07T00:43:50;18.37;;;16.37;;
17169;SDS011;8700;48.222;16.342;2022-12-07T00:47:12;17.93;;;15.93;;
17169;SDS011;8700;48.222;16.342;2022-12-07T00:50:35;16.63;;;14.97;;
17169;SDS011;8700;48.222;16.342;2022-12-07T00:53:58;20.03;;;17.57;;
17169;SDS011;8700;48.222;16.342;2022-12-07T00:57:22;19.13;;;16.30;;
17169;SDS011;8700;48.222;16.342;2022-12-07T01:00:46;20.23;;;18.00;;
17169;SDS011;8700;48.222;16.342;2022-12-07T01:04:09;20.23;;;17.30;;
17169;SDS011;8700;48.222;16.342;2022-12-07T01:07:31;19.53;;;17.50;;
17169;SDS011;8700;48.222;16.342;2022-12-07T01:10:57;19.23;;;17.23;;
17169;SDS011;8700;48.222;16.342;2022-12-07T01:14:22;19.00;;;16.67;;
17169;SDS011;8700;48.222;16.342;2022-12-07T01:17:46;21.27;;;18.17;;
17169;SDS011;8700;48.222;16.342;2022-12-07T01:21:09;19.90;;;17.07;;
17169;SDS011;8700;48.222;16.342;2022-12-07T01:24:34;20.33;;;18.23;;
17169;SDS011;8700;48.222;16.342;2022-12-07T01:27:56;21.30;;;19.10;;
17169;SDS011;8700;48.222;16.342;2022-12-07T01:31:21;21.43;;;19.13;;
17169;SDS011;8700;48.222;16.342;2022-12-07T01:34:44;22.70;;;20.13;;
17169;SDS011;8700;48.222;16.342;2022-12-07T01:38:09;21.67;;;18.80;;
17169;SDS011;8700;48.222;16.342;2022-12-07T01:41:33;21.43;;;18.93;;
17169;SDS011;8700;48.222;16.342;2022-12-07T01:48:58;20.00;;;17.80;;
17169;SDS011;8700;48.222;16.342;2022-12-07T01:52:23;22.27;;;18.90;;
17169;SDS011;8700;48.222;16.342;2022-12-07T01:55:49;22.03;;;19.70;;
17169;SDS011;8700;48.222;16.342;2022-12-07T01:59:14;22.97;;;20.20;;
17169;SDS011;8700;48.222;16.342;2022-12-07T02:02:41;25.33;;;22.10;;
17169;SDS011;8700;48.222;16.342;2022-12-07T02:06:09;24.27;;;19.70;;
17169;SDS011;8700;48.222;16.342;2022-12-07T02:09:34;21.97;;;19.73;;
17169;SDS011;8700;48.222;16.342;2022-12-07T02:13:00;22.03;;;19.70;;
17169;SDS011;8700;48.222;16.342;2022-12-07T02:16:28;21.77;;;18.27;;
17169;SDS011;8700;48.222;16.342;2022-12-07T02:20:13;21.17;;;18.97;;
17169;SDS011;8700;48.222;16.342;2022-12-07T02:23:57;20.87;;;18.67;;
17169;SDS011;8700;48.222;16.342;2022-12-07T02:27:40;20.80;;;17.80;;
17169;SDS011;8700;48.222;16.342;2022-12-07T02:31:11;20.77;;;18.57;;
17169;SDS011;8700;48.222;16.342;2022-12-07T02:34:40;18.50;;;16.57;;
17169;SDS011;8700;48.222;16.342;2022-12-07T02:38:11;20.67;;;17.83;;
17169;SDS011;8700;48.222;16.342;2022-12-07T02:41:40;21.03;;;18.63;;
17169;SDS011;8700;48.222;16.342;2022-12-07T02:45:05;19.93;;;17.83;;
17169;SDS011;8700;48.222;16.342;2022-12-07T02:48:31;19.97;;;17.70;;
17169;SDS011;8700;48.222;16.342;2022-12-07T02:51:55;20.43;;;18.33;;
17169;SDS011;8700;48.222;16.342;2022-12-07T02:55:18;19.73;;;17.73;;
17169;SDS011;8700;48.222;16.342;2022-12-07T02:58:47;20.00;;;17.87;;
17169;SDS011;8700;48.222;16.342;2022-12-07T03:02:17;20.40;;;18.20;;
17169;SDS011;8700;48.222;16.342;2022-12-07T03:06:01;19.77;;;17.77;;
17169;SDS011;8700;48.222;16.342;2022-12-07T03:09:36;22.20;;;17.73;;
17169;SDS011;8700;48.222;16.342;2022-12-07T03:13:05;21.67;;;18.63;;
17169;SDS011;8700;48.222;16.342;2022-12-07T03:16:33;21.50;;;18.10;;
17169;SDS011;8700;48.222;16.342;2022-12-07T03:20:00;19.63;;;17.20;;
17169;SDS011;8700;48.222;16.342;2022-12-07T03:23:27;19.43;;;17.20;;
17169;SDS011;8700;48.222;16.342;2022-12-07T03:26:53;18.27;;;16.30;;
17169;SDS011;8700;48.222;16.342;2022-12-07T03:30:20;19.57;;;17.57;;
17169;SDS011;8700;48.222;16.342;2022-12-07T03:33:47;21.17;;;18.07;;
17169;SDS011;8700;48.222;16.342;2022-12-07T03:37:14;19.57;;;16.50;;
17169;SDS011;8700;48.222;16.342;2022-12-07T03:40:43;19.40;;;16.50;;
17169;SDS011;8700;48.222;16.342;2022-12-07T03:44:11;19.53;;;16.77;;
17169;SDS011;8700;48.222;16.342;2022-12-07T03:47:35;19.70;;;17.00;;
17169;SDS011;8700;48.222;16.342;2022-12-07T03:51:06;20.97;;;17.20;;
17169;SDS011;8700;48.222;16.342;2022-12-07T03:54:36;18.43;;;15.80;;
17169;SDS011;8700;48.222;16.342;2022-12-07T03:58:05;18.13;;;16.17;;
17169;SDS011;8700;48.222;16.342;2022-12-07T04:01:32;17.57;;;15.70;;
17169;SDS011;8700;48.222;16.342;2022-12-07T04:04:55;18.87;;;15.93;;
17169;SDS011;8700;48.222;16.342;2022-12-07T04:08:18;18.77;;;16.80;;
17169;SDS011;8700;48.222;16.342;2022-12-07T04:11:41;17.23;;;15.53;;
17169;SDS011;8700;48.222;16.342;2022-12-07T04:19:40;17.60;;;15.13;;
17169;SDS011;8700;48.222;16.342;2022-12-07T04:23:02;17.73;;;15.77;;
17169;SDS011;8700;48.222;16.342;2022-12-07T04:26:25;18.60;;;15.67;;
17169;SDS011;8700;48.222;16.342;2022-12-07T04:29:47;17.03;;;15.23;;
17169;SDS011;8700;48.222;16.342;2022-12-07T04:33:09;16.33;;;14.63;;
17169;SDS011;8700;48.222;16.342;2022-12-07T04:36:33;18.57;;;15.10;;
17169;SDS011;8700;48.222;16.342;2022-12-07T04:39:57;16.03;;;13.93;;
17169;SDS011;8700;48.222;16.342;2022-12-07T04:43:20;17.07;;;14.57;;
17169;SDS011;8700;48.222;16.342;2022-12-07T04:46:43;19.13;;;14.83;;
17169;SDS011;8700;48.222;16.342;2022-12-07T04:50:06;17.47;;;15.63;;
17169;SDS011;8700;48.222;16.342;2022-12-07T04:53:33;15.20;;;13.57;;
17169;SDS011;8700;48.222;16.342;2022-12-07T04:56:56;15.40;;;13.50;;
17169;SDS011;8700;48.222;16.342;2022-12-07T05:00:19;14.93;;;13.43;;
17169;SDS011;8700;48.222;16.342;2022-12-07T05:03:42;15.73;;;13.43;;
17169;SDS011;8700;48.222;16.342;2022-12-07T05:07:05;16.33;;;14.80;;
17169;SDS011;8700;48.222;16.342;2022-12-07T05:19:38;14.57;;;13.07;;
17169;SDS011;8700;48.222;16.342;2022-12-07T05:23:00;14.53;;;12.30;;
17169;SDS011;8700;48.222;16.342;2022-12-07T05:26:23;14.57;;;13.17;;
17169;SDS011;8700;48.222;16.342;2022-12-07T05:29:45;14.87;;;13.17;;
17169;SDS011;8700;48.222;16.342;2022-12-07T05:33:07;13.80;;;12.40;;
17169;SDS011;8700;48.222;16.342;2022-12-07T05:36:31;14.63;;;13.10;;
17169;SDS011;8700;48.222;16.342;2022-12-07T05:39:53;14.93;;;13.37;;
17169;SDS011;8700;48.222;16.342;2022-12-07T05:43:16;13.70;;;11.80;;
17169;SDS011;8700;48.222;16.342;2022-12-07T05:46:38;14.03;;;12.33;;
17169;SDS011;8700;48.222;16.342;2022-12-07T05:50:01;13.17;;;11.80;;
17169;SDS011;8700;48.222;16.342;2022-12-07T05:53:25;14.73;;;13.30;;
17169;SDS011;8700;48.222;16.342;2022-12-07T05:56:48;13.43;;;12.03;;
17169;SDS011;8700;48.222;16.342;2022-12-07T06:00:11;12.00;;;10.80;;
17169;SDS011;8700;48.222;16.342;2022-12-07T06:03:35;12.57;;;11.30;;
17169;SDS011;8700;48.222;16.342;2022-12-07T06:06:58;11.37;;;10.17;;
17169;SDS011;8700;48.222;16.342;2022-12-07T06:10:23;16.50;;;12.93;;
17169;SDS011;8700;48.222;16.342;2022-12-07T06:13:45;15.37;;;12.47;;
17169;SDS011;8700;48.222;16.342;2022-12-07T06:17:07;12.47;;;11.03;;
17169;SDS011;8700;48.222;16.342;2022-12-07T06:20:29;13.40;;;12.10;;
17169;SDS011;8700;48.222;16.342;2022-12-07T06:23:52;13.77;;;11.90;;
17169;SDS011;8700;48.222;16.342;2022-12-07T06:27:16;14.17;;;12.77;;
17169;SDS011;8700;48.222;16.342;2022-12-07T06:30:38;13.33;;;12.00;;
17169;SDS011;8700;48.222;16.342;2022-12-07T06:34:01;18.40;;;15.53;;
17169;SDS011;8700;48.222;16.342;2022-12-07T06:37:26;16.60;;;13.07;;
17169;SDS011;8700;48.222;16.342;2022-12-07T06:40:48;11.80;;;10.60;;
17169;SDS011;8700;48.222;16.342;2022-12-07T06:44:13;20.83;;;11.67;;
17169;SDS011;8700;48.222;16.342;2022-12-07T06:47:35;14.73;;;11.93;;
17169;SDS011;8700;48.222;16.342;2022-12-07T06:50:58;14.50;;;12.10;;
17169;SDS011;8700;48.222;16.342;2022-12-07T06:54:22;13.57;;;12.17;;
17169;SDS011;8700;48.222;16.342;2022-12-07T06:57:45;14.33;;;12.17;;
17169;SDS011;8700;48.222;16.342;2022-12-07T07:01:10;14.67;;;12.47;;
17169;SDS011;8700;48.222;16.342;2022-12-07T07:04:35;12.37;;;11.07;;
17169;SDS011;8700;48.222;16.342;2022-12-07T07:07:57;12.83;;;11.03;;
17169;SDS011;8700;48.222;16.342;2022-12-07T07:11:21;12.33;;;11.03;;
17169;SDS011;8700;48.222;16.342;2022-12-07T07:14:44;13.97;;;10.47;;
17169;SDS011;8700;48.222;16.342;2022-12-07T07:18:10;12.33;;;11.13;;
17169;SDS011;8700;48.222;16.342;2022-12-07T07:21:33;12.03;;;10.33;;
17169;SDS011;8700;48.222;16.342;2022-12-07T07:24:56;12.97;;;11.23;;
17169;SDS011;8700;48.222;16.342;2022-12-07T07:28:20;13.47;;;12.27;;
17169;SDS011;8700;48.222;16.342;2022-12-07T07:31:44;15.47;;;12.80;;
17169;SDS011;8700;48.222;16.342;2022-12-07T07:35:10;12.67;;;11.37;;
17169;SDS011;8700;48.222;16.342;2022-12-07T07:38:33;12.80;;;10.57;;
17169;SDS011;8700;48.222;16.342;2022-12-07T07:41:57;11.00;;;9.90;;
17169;SDS011;8700;48.222;16.342;2022-12-07T07:45:21;12.10;;;10.90;;
17169;SDS011;8700;48.222;16.342;2022-12-07T07:48:45;12.97;;;11.30;;
17169;SDS011;8700;48.222;16.342;2022-12-07T07:52:10;11.23;;;10.03;;
17169;SDS011;8700;48.222;16.342;2022-12-07T07:55:33;11.77;;;10.57;;
17169;SDS011;8700;48.222;16.342;2022-12-07T07:58:56;12.43;;;11.23;;
17169;SDS011;8700;48.222;16.342;2022-12-07T08:02:20;10.97;;;9.97;;
17169;SDS011;8700;48.222;16.342;2022-12-07T08:05:43;13.17;;;9.80;;
17169;SDS011;8700;48.222;16.342;2022-12-07T08:09:07;13.80;;;10.80;;
17169;SDS011;8700;48.222;16.342;2022-12-07T08:12:30;13.87;;;11.43;;
17169;SDS011;8700;48.222;16.342;2022-12-07T08:15:57;13.73;;;11.90;;
17169;SDS011;8700;48.222;16.342;2022-12-07T08:19:21;10.50;;;9.50;;
17169;SDS011;8700;48.222;16.342;2022-12-07T08:22:45;12.77;;;11.47;;
17169;SDS011;8700;48.222;16.342;2022-12-07T08:26:11;12.43;;;11.13;;
17169;SDS011;8700;48.222;16.342;2022-12-07T08:29:36;13.50;;;11.73;;
17169;SDS011;8700;48.222;16.342;2022-12-07T08:32:58;11.90;;;10.80;;
17169;SDS011;8700;48.222;16.342;2022-12-07T08:36:22;13.07;;;11.77;;
17169;SDS011;8700;48.222;16.342;2022-12-07T08:39:46;12.13;;;10.93;;
17169;SDS011;8700;48.222;16.342;2022-12-07T08:43:11;11.30;;;10.27;;
17169;SDS011;8700;48.222;16.342;2022-12-07T08:46:35;12.17;;;11.13;;
17169;SDS011;8700;48.222;16.342;2022-12-07T08:50:01;11.17;;;10.17;;
17169;SDS011;8700;48.222;16.342;2022-12-07T08:53:25;11.77;;;10.57;;
17169;SDS011;8700;48.222;16.342;2022-12-07T08:56:47;11.37;;;9.83;;
17169;SDS011;8700;48.222;16.342;2022-12-07T09:00:15;12.83;;;10.60;;
17169;SDS011;8700;48.222;16.342;2022-12-07T09:03:38;11.67;;;10.47;;
17169;SDS011;8700;48.222;16.342;2022-12-07T09:11:47;10.57;;;9.67;;
17169;SDS011;8700;48.222;16.342;2022-12-07T09:15:10;9.77;;;8.87;;
17169;SDS011;8700;48.222;16.342;2022-12-07T09:18:36;11.53;;;10.53;;
17169;SDS011;8700;48.222;16.342;2022-12-07T09:22:00;10.03;;;9.23;;
17169;SDS011;8700;48.222;16.342;2022-12-07T09:25:22;12.23;;;11.13;;
17169;SDS011;8700;48.222;16.342;2022-12-07T09:28:45;11.57;;;10.43;;
17169;SDS011;8700;48.222;16.342;2022-12-07T09:32:08;12.30;;;10.97;;
17169;SDS011;8700;48.222;16.342;2022-12-07T09:44:39;13.00;;;11.90;;
17169;SDS011;8700;48.222;16.342;2022-12-07T09:48:03;12.97;;;11.80;;
17169;SDS011;8700;48.222;16.342;2022-12-07T09:51:26;12.80;;;11.70;;
17169;SDS011;8700;48.222;16.342;2022-12-07T09:54:49;12.60;;;11.60;;
17169;SDS011;8700;48.222;16.342;2022-12-07T09:58:13;12.67;;;11.43;;
17169;SDS011;8700;48.222;16.342;2022-12-07T10:01:44;12.27;;;11.07;;
17169;SDS011;8700;48.222;16.342;2022-12-07T10:05:10;12.27;;;11.07;;
17169;SDS011;8700;48.222;16.342;2022-12-07T10:08:36;12.47;;;11.27;;
17169;SDS011;8700;48.222;16.342;2022-12-07T10:11:59;10.97;;;9.97;;
17169;SDS011;8700;48.222;16.342;2022-12-07T10:15:22;12.03;;;10.23;;
17169;SDS011;8700;48.222;16.342;2022-12-07T10:18:46;11.90;;;10.80;;
17169;SDS011;8700;48.222;16.342;2022-12-07T10:22:10;10.27;;;9.37;;
17169;SDS011;8700;48.222;16.342;2022-12-07T10:25:35;11.07;;;10.13;;
17169;SDS011;8700;48.222;16.342;2022-12-07T10:29:00;12.23;;;10.93;;
17169;SDS011;8700;48.222;16.342;2022-12-07T10:32:35;11.30;;;10.30;;
17169;SDS011;8700;48.222;16.342;2022-12-07T10:35:59;10.67;;;9.77;;
17169;SDS011;8700;48.222;16.342;2022-12-07T10:39:23;11.57;;;10.47;;
17169;SDS011;8700;48.222;16.342;2022-12-07T10:42:46;11.20;;;10.10;;
17169;SDS011;8700;48.222;16.342;2022-12-07T10:50:28;9.50;;;8.73;;
17169;SDS011;8700;48.222;16.342;2022-12-07T10:54:03;11.23;;;10.17;;
17169;SDS011;8700;48.222;16.342;2022-12-07T10:57:35;9.32;;;8.57;;
17169;SDS011;8700;48.222;16.342;2022-12-07T11:01:11;9.35;;;8.55;;
17169;SDS011;8700;48.222;16.342;2022-12-07T11:04:40;8.82;;;8.23;;
17169;SDS011;8700;48.222;16.342;2022-12-07T11:08:17;9.32;;;8.52;;
17169;SDS011;8700;48.222;16.342;2022-12-07T11:11:46;11.10;;;10.30;;
17169;SDS011;8700;48.222;16.342;2022-12-07T11:15:17;9.27;;;8.55;;
17169;SDS011;8700;48.222;16.342;2022-12-07T11:18:46;10.00;;;9.02;;
17169;SDS011;8700;48.222;16.342;2022-12-07T11:22:15;9.63;;;8.57;;
17169;SDS011;8700;48.222;16.342;2022-12-07T11:25:42;9.88;;;9.07;;
17169;SDS011;8700;48.222;16.342;2022-12-07T11:29:17;15.73;;;14.30;;
17169;SDS011;8700;48.222;16.342;2022-12-07T11:33:00;10.38;;;9.57;;
17169;SDS011;8700;48.222;16.342;2022-12-07T11:36:38;9.38;;;8.57;;
17169;SDS011;8700;48.222;16.342;2022-12-07T11:49:12;10.37;;;9.37;;
17169;SDS011;8700;48.222;16.342;2022-12-07T11:52:42;9.10;;;8.40;;
17169;SDS011;8700;48.222;16.342;2022-12-07T11:56:10;9.13;;;8.43;;
17169;SDS011;8700;48.222;16.342;2022-12-07T11:59:38;9.90;;;9.00;;
17169;SDS011;8700;48.222;16.342;2022-12-07T12:03:09;11.23;;;9.57;;
17169;SDS011;8700;48.222;16.342;2022-12-07T12:06:38;9.32;;;8.63;;
17169;SDS011;8700;48.222;16.342;2022-12-07T12:10:04;11.85;;;10.65;;
17169;SDS011;8700;48.222;16.342;2022-12-07T12:17:44;8.63;;;7.93;;
17169;SDS011;8700;48.222;16.342;2022-12-07T12:21:26;10.60;;;9.70;;
17169;SDS011;8700;48.222;16.342;2022-12-07T12:24:52;10.60;;;9.60;;
17169;SDS011;8700;48.222;16.342;2022-12-07T12:28:21;9.82;;;8.93;;
17169;SDS011;8700;48.222;16.342;2022-12-07T12:31:47;11.40;;;9.63;;
17169;SDS011;8700;48.222;16.342;2022-12-07T12:35:29;12.03;;;10.83;;
17169;SDS011;8700;48.222;16.342;2022-12-07T12:39:08;14.27;;;12.87;;
17169;SDS011;8700;48.222;16.342;2022-12-07T12:42:45;12.57;;;11.43;;
17169;SDS011;8700;48.222;16.342;2022-12-07T12:50:18;12.73;;;11.43;;
17169;SDS011;8700;48.222;16.342;2022-12-07T12:53:44;14.00;;;11.63;;
17169;SDS011;8700;48.222;16.342;2022-12-07T12:57:09;12.03;;;10.83;;
17169;SDS011;8700;48.222;16.342;2022-12-07T13:00:39;15.23;;;11.57;;
17169;SDS011;8700;48.222;16.342;2022-12-07T13:04:02;10.30;;;9.40;;
17169;SDS011;8700;48.222;16.342;2022-12-07T13:07:49;12.37;;;11.10;;
17169;SDS011;8700;48.222;16.342;2022-12-07T13:11:20;11.03;;;9.93;;
17169;SDS011;8700;48.222;16.342;2022-12-07T13:18:25;14.53;;;12.40;;
17169;SDS011;8700;48.222;16.342;2022-12-07T13:21:56;11.27;;;10.03;;
17169;SDS011;8700;48.222;16.342;2022-12-07T13:25:23;11.73;;;10.30;;
17169;SDS011;8700;48.222;16.342;2022-12-07T13:29:04;15.13;;;10.40;;
17169;SDS011;8700;48.222;16.342;2022-12-07T13:32:32;11.63;;;10.40;;
17169;SDS011;8700;48.222;16.342;2022-12-07T13:35:56;12.67;;;11.47;;
17169;SDS011;8700;48.222;16.342;2022-12-07T13:43:50;13.30;;;10.20;;
17169;SDS011;8700;48.222;16.342;2022-12-07T13:47:16;12.47;;;11.17;;
17169;SDS011;8700;48.222;16.342;2022-12-07T13:50:42;11.90;;;10.70;;
17169;SDS011;8700;48.222;16.342;2022-12-07T13:54:10;11.73;;;10.57;;
17169;SDS011;8700;48.222;16.342;2022-12-07T13:57:34;11.83;;;10.63;;
17169;SDS011;8700;48.222;16.342;2022-12-07T14:00:58;12.37;;;10.10;;
17169;SDS011;8700;48.222;16.342;2022-12-07T14:04:32;12.53;;;11.00;;
17169;SDS011;8700;48.222;16.342;2022-12-07T14:07:57;16.63;;;12.60;;
17169;SDS011;8700;48.222;16.342;2022-12-07T14:11:22;13.57;;;12.17;;
17169;SDS011;8700;48.222;16.342;2022-12-07T14:14:50;12.03;;;10.87;;
17169;SDS011;8700;48.222;16.342;2022-12-07T14:18:25;13.43;;;11.93;;
17169;SDS011;8700;48.222;16.342;2022-12-07T14:22:05;13.17;;;11.90;;
17169;SDS011;8700;48.222;16.342;2022-12-07T14:25:32;14.10;;;12.60;;
17169;SDS011;8700;48.222;16.342;2022-12-07T14:29:17;12.20;;;10.93;;
17169;SDS011;8700;48.222;16.342;2022-12-07T14:32:54;13.03;;;11.07;;
17169;SDS011;8700;48.222;16.342;2022-12-07T14:36:20;18.27;;;16.33;;
17169;SDS011;8700;48.222;16.342;2022-12-07T14:39:44;15.90;;;12.97;;
17169;SDS011;8700;48.222;16.342;2022-12-07T14:43:10;14.33;;;12.33;;
17169;SDS011;8700;48.222;16.342;2022-12-07T14:46:39;11.73;;;10.57;;
17169;SDS011;8700;48.222;16.342;2022-12-07T14:59:25;13.23;;;11.97;;
17169;SDS011;8700;48.222;16.342;2022-12-07T15:02:50;13.87;;;12.47;;
17169;SDS011;8700;48.222;16.342;2022-12-07T15:06:17;16.27;;;12.50;;
17169;SDS011;8700;48.222;16.342;2022-12-07T15:09:40;15.17;;;13.10;;
17169;SDS011;8700;48.222;16.342;2022-12-07T15:13:06;14.63;;;13.07;;
17169;SDS011;8700;48.222;16.342;2022-12-07T15:16:48;17.17;;;14.30;;
17169;SDS011;8700;48.222;16.342;2022-12-07T15:20:15;14.47;;;12.97;;
17169;SDS011;8700;48.222;16.342;2022-12-07T15:23:39;16.63;;;15.03;;
17169;SDS011;8700;48.222;16.342;2022-12-07T15:27:06;15.00;;;13.20;;
17169;SDS011;8700;48.222;16.342;2022-12-07T15:30:30;16.77;;;14.97;;
17169;SDS011;8700;48.222;16.342;2022-12-07T15:34:00;15.07;;;13.47;;
17169;SDS011;8700;48.222;16.342;2022-12-07T15:37:27;14.33;;;12.83;;
17169;SDS011;8700;48.222;16.342;2022-12-07T15:40:50;17.97;;;14.73;;
17169;SDS011;8700;48.222;16.342;2022-12-07T15:44:17;16.07;;;14.00;;
17169;SDS011;8700;48.222;16.342;2022-12-07T15:47:59;15.33;;;13.73;;
17169;SDS011;8700;48.222;16.342;2022-12-07T15:51:24;16.10;;;14.43;;
17169;SDS011;8700;48.222;16.342;2022-12-07T15:54:49;16.17;;;14.47;;
17169;SDS011;8700;48.222;16.342;2022-12-07T15:58:14;15.93;;;14.40;;
17169;SDS011;8700;48.222;16.342;2022-12-07T16:01:37;19.80;;;17.70;;
17169;SDS011;8700;48.222;16.342;2022-12-07T16:05:02;18.73;;;15.43;;
17169;SDS011;8700;48.222;16.342;2022-12-07T16:08:26;16.50;;;14.73;;
17169;SDS011;8700;48.222;16.342;2022-12-07T16:11:53;17.83;;;16.03;;
17169;SDS011;8700;48.222;16.342;2022-12-07T16:15:18;18.70;;;16.80;;
17169;SDS011;8700;48.222;16.342;2022-12-07T16:18:45;18.37;;;16.37;;
17169;SDS011;8700;48.222;16.342;2022-12-07T16:22:10;15.97;;;14.37;;
17169;SDS011;8700;48.222;16.342;2022-12-07T16:25:38;16.60;;;15.00;;
17169;SDS011;8700;48.222;16.342;2022-12-07T16:29:05;19.63;;;15.10;;
17169;SDS011;8700;48.222;16.342;2022-12-07T16:32:30;15.97;;;14.27;;
17169;SDS011;8700;48.222;16.342;2022-12-07T16:35:53;17.57;;;14.70;;
17169;SDS011;8700;48.222;16.342;2022-12-07T16:39:19;19.20;;;15.87;;
17169;SDS011;8700;48.222;16.342;2022-12-07T16:42:41;17.80;;;15.93;;
17169;SDS011;8700;48.222;16.342;2022-12-07T16:46:06;18.20;;;16.00;;
17169;SDS011;8700;48.222;16.342;2022-12-07T16:49:29;20.13;;;16.97;;
17169;SDS011;8700;48.222;16.342;2022-12-07T16:52:53;20.23;;;16.80;;
17169;SDS011;8700;48.222;16.342;2022-12-07T16:56:16;18.10;;;16.07;;
17169;SDS011;8700;48.222;16.342;2022-12-07T16:59:40;18.37;;;15.90;;
17169;SDS011;8700;48.222;16.342;2022-12-07T17:03:04;16.83;;;14.77;;
17169;SDS011;8700;48.222;16.342;2022-12-07T17:06:28;19.97;;;18.03;;
17169;SDS011;8700;48.222;16.342;2022-12-07T17:09:52;16.90;;;14.90;;
17169;SDS011;8700;48.222;16.342;2022-12-07T17:13:15;17.47;;;14.90;;
17169;SDS011;8700;48.222;16.342;2022-12-07T17:16:56;18.47;;;15.77;;
17169;SDS011;8700;48.222;16.342;2022-12-07T17:20:22;20.00;;;15.87;;
17169;SDS011;8700;48.222;16.342;2022-12-07T17:23:47;18.03;;;15.47;;
17169;SDS011;8700;48.222;16.342;2022-12-07T17:27:10;19.53;;;16.47;;
17169;SDS011;8700;48.222;16.342;2022-12-07T17:30:33;18.67;;;16.70;;
17169;SDS011;8700;48.222;16.342;2022-12-07T17:33:56;18.20;;;16.13;;
17169;SDS011;8700;48.222;16.342;2022-12-07T17:37:20;18.33;;;16.17;;
17169;SDS011;8700;48.222;16.342;2022-12-07T17:40:43;20.93;;;18.77;;
17169;SDS011;8700;48.222;16.342;2022-12-07T17:44:07;21.50;;;17.53;;
17169;SDS011;8700;48.222;16.342;2022-12-07T17:47:32;18.87;;;14.90;;
17169;SDS011;8700;48.222;16.342;2022-12-07T17:50:58;19.13;;;16.53;;
17169;SDS011;8700;48.222;16.342;2022-12-07T17:54:40;17.37;;;15.57;;
17169;SDS011;8700;48.222;16.342;2022-12-07T17:58:04;19.57;;;17.57;;
17169;SDS011;8700;48.222;16.342;2022-12-07T18:01:27;19.77;;;17.67;;
17169;SDS011;8700;48.222;16.342;2022-12-07T18:04:49;20.47;;;18.40;;
17169;SDS011;8700;48.222;16.342;2022-12-07T18:08:12;19.03;;;16.33;;
17169;SDS011;8700;48.222;16.342;2022-12-07T18:11:36;18.87;;;15.43;;
17169;SDS011;8700;48.222;16.342;2022-12-07T18:15:00;17.83;;;15.63;;
17169;SDS011;8700;48.222;16.342;2022-12-07T18:18:23;22.20;;;20.03;;
17169;SDS011;8700;48.222;16.342;2022-12-07T18:21:46;17.57;;;15.20;;
17169;SDS011;8700;48.222;16.342;2022-12-07T18:25:09;18.23;;;15.37;;
17169;SDS011;8700;48.222;16.342;2022-12-07T18:33:05;16.90;;;14.70;;
17169;SDS011;8700;48.222;16.342;2022-12-07T18:36:28;19.93;;;17.27;;
17169;SDS011;8700;48.222;16.342;2022-12-07T18:39:50;15.73;;;13.20;;
17169;SDS011;8700;48.222;16.342;2022-12-07T18:43:14;16.87;;;15.13;;
17169;SDS011;8700;48.222;16.342;2022-12-07T18:46:37;18.30;;;14.47;;
17169;SDS011;8700;48.222;16.342;2022-12-07T18:50:03;19.30;;;15.03;;
17169;SDS011;8700;48.222;16.342;2022-12-07T18:53:26;18.93;;;16.03;;
17169;SDS011;8700;48.222;16.342;2022-12-07T18:56:49;15.47;;;13.50;;
17169;SDS011;8700;48.222;16.342;2022-12-07T19:00:14;15.40;;;13.90;;
17169;SDS011;8700;48.222;16.342;2022-12-07T19:03:37;14.93;;;12.93;;
17169;SDS011;8700;48.222;16.342;2022-12-07T19:07:02;13.67;;;12.27;;
17169;SDS011;8700;48.222;16.342;2022-12-07T19:10:24;14.97;;;13.40;;
17169;SDS011;8700;48.222;16.342;2022-12-07T19:13:47;14.10;;;12.60;;
17169;SDS011;8700;48.222;16.342;2022-12-07T19:17:10;13.57;;;12.17;;
17169;SDS011;8700;48.222;16.342;2022-12-07T19:20:33;13.30;;;11.93;;
17169;SDS011;8700;48.222;16.342;2022-12-07T19:23:57;13.87;;;12.33;;
17169;SDS011;8700;48.222;16.342;2022-12-07T19:27:23;15.33;;;11.93;;
17169;SDS011;8700;48.222;16.342;2022-12-07T19:30:46;12.87;;;11.57;;
17169;SDS011;8700;48.222;16.342;2022-12-07T19:34:09;12.67;;;11.47;;
17169;SDS011;8700;48.222;16.342;2022-12-07T19:37:31;12.80;;;11.27;;
17169;SDS011;8700;48.222;16.342;2022-12-07T19:40:56;13.40;;;11.57;;
17169;SDS011;8700;48.222;16.342;2022-12-07T19:44:26;12.30;;;11.10;;
17169;SDS011;8700;48.222;16.342;2022-12-07T19:47:50;14.03;;;11.23;;
17169;SDS011;8700;48.222;16.342;2022-12-07T19:51:13;12.00;;;10.80;;
17169;SDS011;8700;48.222;16.342;2022-12-07T19:54:35;12.10;;;10.90;;
17169;SDS011;8700;48.222;16.342;2022-12-07T19:58:00;11.90;;;10.70;;
17169;SDS011;8700;48.222;16.342;2022-12-07T20:01:22;13.70;;;12.30;;
17169;SDS011;8700;48.222;16.342;2022-12-07T20:04:45;12.83;;;11.53;;
17169;SDS011;8700;48.222;16.342;2022-12-07T20:08:07;14.93;;;13.07;;
17169;SDS011;8700;48.222;16.342;2022-12-07T20:11:32;13.37;;;12.00;;
17169;SDS011;8700;48.222;16.342;2022-12-07T20:15:14;49.50;;;36.20;;
17169;SDS011;8700;48.222;16.342;2022-12-07T20:18:36;13.53;;;12.13;;
17169;SDS011;8700;48.222;16.342;2022-12-07T20:21:59;12.70;;;11.37;;
17169;SDS011;8700;48.222;16.342;2022-12-07T20:25:21;15.47;;;12.10;;
17169;SDS011;8700;48.222;16.342;2022-12-07T20:28:43;15.40;;;13.00;;
17169;SDS011;8700;48.222;16.342;2022-12-07T20:32:10;13.10;;;11.80;;
17169;SDS011;8700;48.222;16.342;2022-12-07T20:35:34;15.33;;;12.80;;
17169;SDS011;8700;48.222;16.342;2022-12-07T20:38:57;14.00;;;11.60;;
17169;SDS011;8700;48.222;16.342;2022-12-07T20:42:21;13.73;;;11.47;;
17169;SDS011;8700;48.222;16.342;2022-12-07T20:45:59;13.77;;;10.27;;
17169;SDS011;8700;48.222;16.342;2022-12-07T20:49:23;11.87;;;10.67;;
17169;SDS011;8700;48.222;16.342;2022-12-07T20:52:46;12.53;;;11.33;;
17169;SDS011;8700;48.222;16.342;2022-12-07T20:56:16;18.33;;;16.57;;
17169;SDS011;8700;48.222;16.342;2022-12-07T20:59:39;15.83;;;14.23;;
17169;SDS011;8700;48.222;16.342;2022-12-07T21:03:02;13.50;;;11.87;;
17169;SDS011;8700;48.222;16.342;2022-12-07T21:06:27;15.17;;;13.40;;
17169;SDS011;8700;48.222;16.342;2022-12-07T21:09:50;17.33;;;15.57;;
17169;SDS011;8700;48.222;16.342;2022-12-07T21:13:13;15.80;;;14.20;;
17169;SDS011;8700;48.222;16.342;2022-12-07T21:16:36;14.73;;;13.23;;
17169;SDS011;8700;48.222;16.342;2022-12-07T21:19:59;15.97;;;13.10;;
17169;SDS011;8700;48.222;16.342;2022-12-07T21:23:23;19.27;;;14.97;;
17169;SDS011;8700;48.222;16.342;2022-12-07T21:26:47;22.53;;;15.93;;
17169;SDS011;8700;48.222;16.342;2022-12-07T21:30:11;18.27;;;14.37;;